Time,TemperatureF,DewpointF,PressureIn,WindDirection,WindDirectionDegrees,WindSpeedMPH,WindSpeedGustMPH,Humidity,HourlyPrecipIn,Conditions,Clouds,dailyrainin,SolarRadiationWatts/m^2,SoftwareType,DateUTC
2013-04-16 00:13:00,50.0,50.0,-100.00,South,178,3.0,8.0,100,0.05,,,0.32,1.000000,,2013-04-16 04:13:00,
2013-04-16 00:23:00,50.0,50.0,-100.00,South,178,3.0,8.0,100,0.05,,,0.32,1.000000,,2013-04-16 04:23:00,
2013-04-16 00:33:00,50.0,50.0,-100.00,South,178,3.0,8.0,100,0.05,,,0.32,1.000000,,2013-04-16 04:33:00,
2013-04-16 00:42:00,50.0,50.0,-100.00,South,178,3.0,8.0,100,0.05,,,0.32,1.000000,,2013-04-16 04:42:00,
2013-04-16 01:12:00,49.0,49.0,-100.00,SW,220,3.0,7.0,100,0.04,,,0.36,1.000000,,2013-04-16 05:12:00,
2013-04-16 01:22:00,49.0,49.0,-100.00,SW,220,3.0,7.0,100,0.04,,,0.36,1.000000,,2013-04-16 05:22:00,
2013-04-16 01:32:00,49.0,49.0,-100.00,SW,220,3.0,7.0,100,0.04,,,0.36,1.000000,,2013-04-16 05:32:00,
2013-04-16 01:42:00,49.0,49.0,-100.00,SW,220,3.0,7.0,100,0.04,,,0.36,1.000000,,2013-04-16 05:42:00,
2013-04-16 02:12:00,48.0,47.0,-100.00,WSW,254,8.0,12.0,96,0.06,,,0.42,1.000000,,2013-04-16 06:12:00,
2013-04-16 02:22:00,48.0,47.0,-100.00,WSW,254,8.0,12.0,96,0.06,,,0.42,1.000000,,2013-04-16 06:22:00,
2013-04-16 02:32:00,48.0,47.0,-100.00,WSW,254,8.0,12.0,96,0.06,,,0.42,1.000000,,2013-04-16 06:32:00,
2013-04-16 02:42:00,48.0,47.0,-100.00,WSW,254,8.0,12.0,96,0.06,,,0.42,1.000000,,2013-04-16 06:42:00,
2013-04-16 03:12:00,46.0,45.0,-100.00,West,267,8.0,11.0,98,0.03,,,0.45,1.000000,,2013-04-16 07:12:00,
2013-04-16 03:22:00,46.0,45.0,-100.00,West,267,8.0,11.0,98,0.03,,,0.45,1.000000,,2013-04-16 07:22:00,
2013-04-16 03:32:00,46.0,45.0,-100.00,West,267,8.0,11.0,98,0.03,,,0.45,1.000000,,2013-04-16 07:32:00,
2013-04-16 03:42:00,46.0,45.0,-100.00,West,267,8.0,11.0,98,0.03,,,0.45,1.000000,,2013-04-16 07:42:00,
2013-04-16 04:12:00,44.0,43.0,-100.00,WNW,294,4.0,11.0,98,0.00,,,0.45,1.000000,,2013-04-16 08:12:00,
2013-04-16 04:22:00,44.0,43.0,-100.00,WNW,294,4.0,11.0,98,0.00,,,0.45,1.000000,,2013-04-16 08:22:00,
2013-04-16 04:32:00,44.0,43.0,-100.00,WNW,294,4.0,11.0,98,0.00,,,0.45,1.000000,,2013-04-16 08:32:00,
2013-04-16 04:42:00,44.0,43.0,-100.00,WNW,294,4.0,11.0,98,0.00,,,0.45,1.000000,,2013-04-16 08:42:00,
2013-04-16 05:12:00,42.0,40.0,-100.00,NW,307,8.0,13.0,94,0.01,,,0.46,1.000000,,2013-04-16 09:12:00,
2013-04-16 05:22:00,42.0,40.0,-100.00,NW,307,8.0,13.0,94,0.01,,,0.46,1.000000,,2013-04-16 09:22:00,
2013-04-16 05:33:00,42.0,40.0,-100.00,NW,307,8.0,13.0,94,0.01,,,0.46,1.000000,,2013-04-16 09:33:00,
2013-04-16 05:43:00,42.0,40.0,-100.00,NW,307,8.0,13.0,94,0.01,,,0.46,1.000000,,2013-04-16 09:43:00,
2013-04-16 06:13:00,40.0,37.0,-100.00,WNW,296,3.0,14.0,89,0.00,,,0.46,1.000000,,2013-04-16 10:13:00,
2013-04-16 06:23:00,40.0,37.0,-100.00,WNW,296,3.0,14.0,89,0.00,,,0.46,1.000000,,2013-04-16 10:23:00,
2013-04-16 06:33:00,40.0,37.0,-100.00,WNW,296,3.0,14.0,89,0.00,,,0.46,1.000000,,2013-04-16 10:33:00,
2013-04-16 06:42:00,40.0,37.0,-100.00,WNW,296,3.0,14.0,89,0.00,,,0.46,1.000000,,2013-04-16 10:42:00,
2013-04-16 07:12:00,39.0,34.0,-100.00,WNW,284,4.0,9.0,83,0.00,,,0.46,1.000000,,2013-04-16 11:12:00,
2013-04-16 07:22:00,39.0,34.0,-100.00,WNW,284,4.0,9.0,83,0.00,,,0.46,1.000000,,2013-04-16 11:22:00,
2013-04-16 07:32:00,39.0,34.0,-100.00,WNW,284,4.0,9.0,83,0.00,,,0.46,1.000000,,2013-04-16 11:32:00,
2013-04-16 07:42:00,39.0,34.0,-100.00,WNW,284,4.0,9.0,83,0.00,,,0.46,1.000000,,2013-04-16 11:42:00,
2013-04-16 08:12:00,39.0,35.0,-100.00,SW,233,3.0,7.0,85,0.00,,,0.46,31.000000,,2013-04-16 12:12:00,
2013-04-16 08:22:00,39.0,35.0,-100.00,SW,233,3.0,7.0,85,0.00,,,0.46,31.000000,,2013-04-16 12:22:00,
2013-04-16 08:32:00,39.0,35.0,-100.00,SW,233,3.0,7.0,85,0.00,,,0.46,31.000000,,2013-04-16 12:32:00,
2013-04-16 08:42:00,39.0,35.0,-100.00,SW,233,3.0,7.0,85,0.00,,,0.46,31.000000,,2013-04-16 12:42:00,
2013-04-16 09:12:00,41.0,34.0,-100.00,West,275,7.0,11.0,77,0.00,,,0.46,156.000000,,2013-04-16 13:12:00,
2013-04-16 09:22:00,41.0,34.0,-100.00,West,275,7.0,11.0,77,0.00,,,0.46,156.000000,,2013-04-16 13:22:00,
2013-04-16 09:32:00,41.0,34.0,-100.00,West,275,7.0,11.0,77,0.00,,,0.46,156.000000,,2013-04-16 13:32:00,
2013-04-16 09:42:00,41.0,34.0,-100.00,West,275,7.0,11.0,77,0.00,,,0.46,156.000000,,2013-04-16 13:42:00,
2013-04-16 10:12:00,42.0,30.0,-100.00,WNW,282,12.0,18.0,63,0.00,,,-99.99,369.000000,,2013-04-16 14:12:00,
2013-04-16 10:22:00,42.0,30.0,-100.00,WNW,282,12.0,18.0,63,0.00,,,-99.99,369.000000,,2013-04-16 14:22:00,
2013-04-16 10:32:00,42.0,30.0,-100.00,WNW,282,12.0,18.0,63,0.00,,,-99.99,369.000000,,2013-04-16 14:32:00,
2013-04-16 10:42:00,42.0,30.0,-100.00,WNW,282,12.0,18.0,63,0.00,,,-99.99,369.000000,,2013-04-16 14:42:00,
2013-04-16 11:12:00,45.0,31.0,-100.00,West,276,15.0,26.0,58,0.00,,,0.46,547.000000,,2013-04-16 15:12:00,
2013-04-16 11:22:00,45.0,31.0,-100.00,West,276,15.0,26.0,58,0.00,,,0.46,547.000000,,2013-04-16 15:22:00,
2013-04-16 11:33:00,45.0,31.0,-100.00,West,276,15.0,26.0,58,0.00,,,0.46,547.000000,,2013-04-16 15:33:00,
2013-04-16 11:43:00,45.0,31.0,-100.00,West,276,15.0,26.0,58,0.00,,,0.46,547.000000,,2013-04-16 15:43:00,
2013-04-16 12:13:00,47.0,31.0,-100.00,West,281,13.0,22.0,53,0.00,,,0.46,692.000000,,2013-04-16 16:13:00,
2013-04-16 12:23:00,47.0,31.0,-100.00,West,281,13.0,22.0,53,0.00,,,0.46,692.000000,,2013-04-16 16:23:00,
2013-04-16 12:33:00,47.0,31.0,-100.00,West,281,13.0,22.0,53,0.00,,,0.46,692.000000,,2013-04-16 16:33:00,
2013-04-16 12:42:00,47.0,31.0,-100.00,West,281,13.0,22.0,53,0.00,,,0.46,692.000000,,2013-04-16 16:42:00,
2013-04-16 13:12:00,49.0,30.0,-100.00,WNW,293,10.0,23.0,48,0.00,,,0.46,783.000000,,2013-04-16 17:12:00,
2013-04-16 13:22:00,49.0,30.0,-100.00,WNW,293,10.0,23.0,48,0.00,,,0.46,783.000000,,2013-04-16 17:22:00,
2013-04-16 13:33:00,49.0,30.0,-100.00,WNW,293,10.0,23.0,48,0.00,,,0.46,783.000000,,2013-04-16 17:33:00,
2013-04-16 13:43:00,49.0,30.0,-100.00,WNW,293,10.0,23.0,48,0.00,,,0.46,783.000000,,2013-04-16 17:43:00,
2013-04-16 14:12:00,51.0,29.0,-100.00,NW,305,10.0,18.0,43,0.00,,,0.46,842.000000,,2013-04-16 18:12:00,
2013-04-16 14:22:00,51.0,29.0,-100.00,NW,305,10.0,18.0,43,0.00,,,0.46,842.000000,,2013-04-16 18:22:00,
2013-04-16 14:32:00,51.0,29.0,-100.00,NW,305,10.0,18.0,43,0.00,,,0.46,842.000000,,2013-04-16 18:32:00,
2013-04-16 14:42:00,51.0,29.0,-100.00,NW,305,10.0,18.0,43,0.00,,,0.46,842.000000,,2013-04-16 18:42:00,
2013-04-16 15:12:00,52.0,30.0,-100.00,WNW,295,11.0,20.0,42,0.00,,,0.46,846.000000,,2013-04-16 19:12:00,
2013-04-16 15:22:00,52.0,30.0,-100.00,WNW,295,11.0,20.0,42,0.00,,,0.46,846.000000,,2013-04-16 19:22:00,
2013-04-16 15:32:00,52.0,30.0,-100.00,WNW,295,11.0,20.0,42,0.00,,,0.46,846.000000,,2013-04-16 19:32:00,
2013-04-16 15:42:00,52.0,30.0,-100.00,WNW,295,11.0,20.0,42,0.00,,,0.46,846.000000,,2013-04-16 19:42:00,
2013-04-16 16:13:00,53.0,29.0,-100.00,NW,309,10.0,20.0,40,0.00,,,0.46,796.000000,,2013-04-16 20:13:00,
2013-04-16 16:22:00,53.0,29.0,-100.00,NW,309,10.0,20.0,40,0.00,,,0.46,796.000000,,2013-04-16 20:22:00,
2013-04-16 16:32:00,53.0,29.0,-100.00,NW,309,10.0,20.0,40,0.00,,,0.46,796.000000,,2013-04-16 20:32:00,
2013-04-16 16:42:00,53.0,29.0,-100.00,NW,309,10.0,20.0,40,0.00,,,0.46,796.000000,,2013-04-16 20:42:00,
2013-04-16 17:12:00,52.0,27.0,-100.00,WNW,284,11.0,24.0,38,0.00,,,0.46,686.000000,,2013-04-16 21:12:00,
2013-04-16 17:22:00,52.0,27.0,-100.00,WNW,284,11.0,24.0,38,0.00,,,0.46,686.000000,,2013-04-16 21:22:00,
2013-04-16 17:33:00,52.0,27.0,-100.00,WNW,284,11.0,24.0,38,0.00,,,0.46,686.000000,,2013-04-16 21:33:00,
2013-04-16 17:43:00,52.0,27.0,-100.00,WNW,284,11.0,24.0,38,0.00,,,0.46,686.000000,,2013-04-16 21:43:00,
2013-04-16 18:13:00,51.0,27.0,-100.00,NW,306,10.0,19.0,39,0.00,,,0.46,535.000000,,2013-04-16 22:13:00,
2013-04-16 18:22:00,51.0,27.0,-100.00,NW,306,10.0,19.0,39,0.00,,,0.46,535.000000,,2013-04-16 22:22:00,
2013-04-16 18:33:00,51.0,27.0,-100.00,NW,306,10.0,19.0,39,0.00,,,0.46,535.000000,,2013-04-16 22:33:00,
2013-04-16 18:43:00,51.0,27.0,-100.00,NW,306,10.0,19.0,39,0.00,,,0.46,535.000000,,2013-04-16 22:43:00,
2013-04-16 19:12:00,50.0,26.0,-100.00,NW,306,8.0,21.0,39,0.00,,,0.46,355.000000,,2013-04-16 23:12:00,
2013-04-16 19:22:00,50.0,26.0,-100.00,NW,306,8.0,21.0,39,0.00,,,0.46,355.000000,,2013-04-16 23:22:00,
2013-04-16 19:32:00,50.0,26.0,-100.00,NW,306,8.0,21.0,39,0.00,,,0.46,355.000000,,2013-04-16 23:32:00,
2013-04-16 19:43:00,50.0,26.0,-100.00,NW,306,8.0,21.0,39,0.00,,,0.46,355.000000,,2013-04-16 23:43:00,
2013-04-16 20:12:00,48.0,27.0,-100.00,NW,311,6.0,14.0,43,0.00,,,0.42,159.000000,,2013-04-17 00:12:00,
2013-04-16 20:22:00,48.0,27.0,-100.00,NW,311,6.0,14.0,43,0.00,,,0.42,159.000000,,2013-04-17 00:22:00,
2013-04-16 20:32:00,48.0,27.0,-100.00,NW,311,6.0,14.0,43,0.00,,,0.42,159.000000,,2013-04-17 00:32:00,
2013-04-16 20:42:00,48.0,27.0,-100.00,NW,311,6.0,14.0,43,0.00,,,0.42,159.000000,,2013-04-17 00:42:00,
2013-04-16 21:12:00,43.0,25.0,-100.00,NNW,327,3.0,10.0,49,0.00,,,0.34,19.000000,,2013-04-17 01:12:00,
2013-04-16 21:22:00,43.0,25.0,-100.00,NNW,327,3.0,10.0,49,0.00,,,0.34,19.000000,,2013-04-17 01:22:00,
2013-04-16 21:32:00,43.0,25.0,-100.00,NNW,327,3.0,10.0,49,0.00,,,0.34,19.000000,,2013-04-17 01:32:00,
2013-04-16 21:42:00,43.0,25.0,-100.00,NNW,327,3.0,10.0,49,0.00,,,0.34,19.000000,,2013-04-17 01:42:00,
2013-04-16 22:12:00,37.0,30.0,-100.00,SE,140,3.0,5.0,75,0.00,,,0.25,1.000000,,2013-04-17 02:12:00,
2013-04-16 22:22:00,37.0,30.0,-100.00,SE,140,3.0,5.0,75,0.00,,,0.25,1.000000,,2013-04-17 02:22:00,
2013-04-16 22:32:00,37.0,30.0,-100.00,SE,140,3.0,5.0,75,0.00,,,0.25,1.000000,,2013-04-17 02:32:00,
2013-04-16 22:42:00,37.0,30.0,-100.00,SE,140,3.0,5.0,75,0.00,,,0.25,1.000000,,2013-04-17 02:42:00,
2013-04-16 23:12:00,34.0,31.0,-100.00,WNW,287,1.0,6.0,88,0.00,,,0.19,0.000000,,2013-04-17 03:12:00,
2013-04-16 23:22:00,34.0,31.0,-100.00,WNW,287,1.0,6.0,88,0.00,,,0.19,0.000000,,2013-04-17 03:22:00,
2013-04-16 23:33:00,34.0,31.0,-100.00,WNW,287,1.0,6.0,88,0.00,,,0.19,0.000000,,2013-04-17 03:33:00,
2013-04-16 23:42:00,34.0,31.0,-100.00,WNW,287,1.0,6.0,88,0.00,,,0.19,0.000000,,2013-04-17 03:42:00,